Time;durP1;ratioP1;P1;durP2;ratioP2;P2;SDS_P1;SDS_P2;PMS_P1;PMS_P2;Temp;Humidity;BMP_temperature;BMP_pressure;BME280_temperature;BME280_humidity;BME280_pressure;Samples;Min_cycle;Max_cycle;Signal;HPM_P1;HPM_P2
2021/10/13 00:01:39;;;;;;;5.00;2.35;;;;;;;;;;7392262;19;20031;-58
2021/10/13 00:04:07;;;;;;;7.25;1.73;;;;;;;;;;7393493;19;20371;-60
2021/10/13 00:06:34;;;;;;;3.40;1.20;;;;;;;;;;7393445;19;20018;-60
2021/10/13 00:09:02;;;;;;;4.65;1.58;;;;;;;;;;7391534;19;20014;-56
2021/10/13 00:11:30;;;;;;;2.35;1.00;;;;;;;;;;7393757;19;20022;-59
2021/10/13 00:13:57;;;;;;;2.72;0.80;;;;;;;;;;7391913;19;20040;-60
2021/10/13 00:16:25;;;;;;;4.63;0.93;;;;;;;;;;7392942;19;20010;-60
2021/10/13 00:18:52;;;;;;;1.30;0.93;;;;;;;;;;7389618;19;20348;-61
2021/10/13 00:21:21;;;;;;;12.93;4.72;;;;;;;;;;7392376;19;20081;-59
2021/10/13 00:23:48;;;;;;;3.08;1.30;;;;;;;;;;7393839;19;20081;-60
2021/10/13 00:26:16;;;;;;;2.65;1.10;;;;;;;;;;7393327;19;20093;-59
2021/10/13 00:28:44;;;;;;;2.25;1.13;;;;;;;;;;7395862;19;20011;-56
2021/10/13 00:31:11;;;;;;;6.55;1.00;;;;;;;;;;7392895;19;20020;-60
2021/10/13 00:33:39;;;;;;;1.58;0.77;;;;;;;;;;7391984;19;20026;-59
2021/10/13 00:36:06;;;;;;;1.25;0.73;;;;;;;;;;7392842;19;20010;-61
2021/10/13 00:38:33;;;;;;;1.35;0.75;;;;;;;;;;7392104;19;20010;-62
2021/10/13 00:41:01;;;;;;;1.27;0.70;;;;;;;;;;7392378;19;20022;-58
2021/10/13 00:43:29;;;;;;;1.20;0.88;;;;;;;;;;7392718;19;20025;-59
2021/10/13 00:45:56;;;;;;;1.27;0.85;;;;;;;;;;7391923;19;20485;-57
2021/10/13 00:48:24;;;;;;;2.03;0.90;;;;;;;;;;7392174;19;20080;-61
2021/10/13 00:50:52;;;;;;;3.35;1.05;;;;;;;;;;7392109;19;20014;-60
2021/10/13 00:53:20;;;;;;;7.35;2.35;;;;;;;;;;7392040;19;20036;-55
2021/10/13 00:55:47;;;;;;;6.03;2.55;;;;;;;;;;7392028;19;20017;-60
2021/10/13 00:58:15;;;;;;;3.28;1.70;;;;;;;;;;7392063;19;20003;-61
2021/10/13 01:00:46;;;;;;;4.38;2.13;;;;;;;;;;7392370;19;20014;-57
2021/10/13 01:03:27;;;;;;;3.45;2.03;;;;;;;;;;7391921;19;20045;-61
2021/10/13 01:06:07;;;;;;;2.83;1.40;;;;;;;;;;7390206;19;20010;-59
2021/10/13 01:09:03;;;;;;;2.22;1.08;;;;;;;;;;7391256;19;20015;-61
2021/10/13 01:11:43;;;;;;;2.53;1.10;;;;;;;;;;7392030;19;20074;-62
2021/10/13 01:14:34;;;;;;;1.88;1.02;;;;;;;;;;7391096;19;20011;-62
2021/10/13 01:17:14;;;;;;;3.13;1.10;;;;;;;;;;7389536;19;20082;-61
2021/10/13 01:19:41;;;;;;;3.83;1.77;;;;;;;;;;7390372;19;20696;-60
2021/10/13 01:22:40;;;;;;;1.98;1.05;;;;;;;;;;7391599;19;20636;-62
2021/10/13 01:25:36;;;;;;;2.33;0.90;;;;;;;;;;7390964;19;20359;-61
2021/10/13 01:28:09;;;;;;;1.45;1.00;;;;;;;;;;7393378;19;20045;-54
2021/10/13 01:30:48;;;;;;;2.00;1.13;;;;;;;;;;7393705;19;20023;-54
2021/10/13 01:33:28;;;;;;;2.00;1.10;;;;;;;;;;7404591;19;20498;-60
2021/10/13 01:36:00;;;;;;;5.00;1.13;;;;;;;;;;7403340;19;20355;-58
2021/10/13 01:38:32;;;;;;;5.60;1.63;;;;;;;;;;7404955;19;20086;-59
2021/10/13 01:41:04;;;;;;;2.70;1.48;;;;;;;;;;7404925;19;20066;-61
2021/10/13 01:43:35;;;;;;;2.47;1.40;;;;;;;;;;7403354;19;20014;-57
2021/10/13 01:46:04;;;;;;;3.10;1.98;;;;;;;;;;7405452;19;20014;-60
2021/10/13 01:48:34;;;;;;;3.40;1.48;;;;;;;;;;7404651;19;20010;-57
2021/10/13 01:51:02;;;;;;;3.03;1.50;;;;;;;;;;7404471;19;20014;-60
2021/10/13 01:53:30;;;;;;;2.47;1.05;;;;;;;;;;7404744;19;20368;-62
2021/10/13 01:56:00;;;;;;;5.53;2.25;;;;;;;;;;7402831;19;20074;-54
2021/10/13 01:58:29;;;;;;;3.60;1.90;;;;;;;;;;7403933;19;20021;-57
2021/10/13 02:00:58;;;;;;;6.72;2.47;;;;;;;;;;7404339;19;20033;-62
2021/10/13 02:03:28;;;;;;;5.05;2.05;;;;;;;;;;7403276;19;20021;-62
2021/10/13 02:05:59;;;;;;;5.18;1.83;;;;;;;;;;7404540;19;20006;-62
2021/10/13 02:08:28;;;;;;;3.67;1.70;;;;;;;;;;7404325;19;20018;-61
2021/10/13 02:10:59;;;;;;;2.58;1.05;;;;;;;;;;7404488;19;20014;-61
2021/10/13 02:13:32;;;;;;;5.10;2.10;;;;;;;;;;7404424;19;20040;-61
2021/10/13 02:16:01;;;;;;;2.28;1.20;;;;;;;;;;7404033;19;20014;-60
2021/10/13 02:18:31;;;;;;;1.88;1.00;;;;;;;;;;7403996;19;20010;-58
2021/10/13 02:21:01;;;;;;;1.92;0.80;;;;;;;;;;7403807;19;20010;-61
2021/10/13 02:23:35;;;;;;;2.85;1.00;;;;;;;;;;7403811;19;20015;-61
2021/10/13 02:26:09;;;;;;;2.80;0.70;;;;;;;;;;7403824;19;20015;-61
2021/10/13 02:28:42;;;;;;;1.20;0.70;;;;;;;;;;7406607;19;20703;-54
2021/10/13 02:31:10;;;;;;;2.03;0.70;;;;;;;;;;7403596;19;20010;-60
2021/10/13 02:33:37;;;;;;;3.63;1.52;;;;;;;;;;7400786;19;20019;-59
2021/10/13 02:36:05;;;;;;;5.07;2.03;;;;;;;;;;7403378;19;20014;-55
2021/10/13 02:38:33;;;;;;;4.45;1.05;;;;;;;;;;7403440;19;20037;-61
2021/10/13 02:41:01;;;;;;;2.30;1.00;;;;;;;;;;7401789;19;20010;-56
2021/10/13 02:43:29;;;;;;;1.02;0.68;;;;;;;;;;7399350;19;20015;-54
2021/10/13 02:46:09;;;;;;;1.65;0.80;;;;;;;;;;7394440;19;20021;-60
2021/10/13 02:48:39;;;;;;;4.68;1.30;;;;;;;;;;7395780;19;20356;-61
2021/10/13 02:51:07;;;;;;;3.55;1.15;;;;;;;;;;7395878;19;20398;-61
2021/10/13 02:53:51;;;;;;;1.73;0.90;;;;;;;;;;7396273;19;20077;-57
2021/10/13 02:56:32;;;;;;;;;;;;;;;;;;7396711;19;20014;-59
2021/10/13 02:59:22;;;;;;;1.95;0.77;;;;;;;;;;7396166;19;19911;-61
2021/10/13 03:01:54;;;;;;;4.07;0.90;;;;;;;;;;7395985;19;20034;-58
2021/10/13 03:04:28;;;;;;;4.07;0.90;;;;;;;;;;7394226;19;20507;-69
2021/10/13 03:07:05;;;;;;;1.30;0.73;;;;;;;;;;7393550;19;20027;-60
2021/10/13 03:09:35;;;;;;;2.75;0.75;;;;;;;;;;7395263;19;20006;-60
2021/10/13 03:12:05;;;;;;;0.95;0.68;;;;;;;;;;7395122;19;20018;-57
2021/10/13 03:14:35;;;;;;;1.58;0.70;;;;;;;;;;7395272;19;20085;-58
2021/10/13 03:17:04;;;;;;;1.63;0.80;;;;;;;;;;7395176;19;20014;-59
2021/10/13 03:19:35;;;;;;;2.55;0.80;;;;;;;;;;7394384;19;20014;-55
2021/10/13 03:22:05;;;;;;;1.75;1.00;;;;;;;;;;7393478;19;20082;-50
2021/10/13 03:24:33;;;;;;;3.13;0.80;;;;;;;;;;7392584;19;20015;-59
2021/10/13 03:27:01;;;;;;;0.95;0.80;;;;;;;;;;7397709;19;20350;-59
2021/10/13 03:29:29;;;;;;;3.28;2.00;;;;;;;;;;7394433;19;20032;-58
2021/10/13 03:31:57;;;;;;;2.15;0.80;;;;;;;;;;7393028;19;20480;-61
2021/10/13 03:34:25;;;;;;;4.10;1.75;;;;;;;;;;7391449;19;20060;-55
2021/10/13 03:36:53;;;;;;;2.75;1.60;;;;;;;;;;7395101;19;20449;-59
2021/10/13 03:39:21;;;;;;;2.53;1.20;;;;;;;;;;7394048;19;20018;-59
2021/10/13 03:41:49;;;;;;;2.28;0.80;;;;;;;;;;7397332;19;20015;-59
2021/10/13 03:44:19;;;;;;;1.10;0.80;;;;;;;;;;7394597;19;20013;-57
2021/10/13 03:46:47;;;;;;;1.25;0.70;;;;;;;;;;7394211;19;20334;-61
2021/10/13 03:49:15;;;;;;;1.35;0.88;;;;;;;;;;7392976;19;20010;-59
2021/10/13 03:51:43;;;;;;;1.10;0.80;;;;;;;;;;7393799;19;20010;-60
2021/10/13 03:54:11;;;;;;;1.25;0.70;;;;;;;;;;7390113;19;20021;-60
2021/10/13 03:56:38;;;;;;;2.35;0.80;;;;;;;;;;7393552;19;20018;-54
2021/10/13 03:59:05;;;;;;;2.50;0.90;;;;;;;;;;7393330;19;20486;-55
2021/10/13 04:01:33;;;;;;;1.50;0.77;;;;;;;;;;7393520;19;20506;-61
2021/10/13 04:04:01;;;;;;;0.52;0.50;;;;;;;;;;7393463;19;20010;-60
2021/10/13 04:06:29;;;;;;;2.47;0.60;;;;;;;;;;7393444;19;20011;-54
2021/10/13 04:08:56;;;;;;;1.60;0.70;;;;;;;;;;7393209;19;20014;-55
2021/10/13 04:11:24;;;;;;;2.47;0.90;;;;;;;;;;7393273;19;20018;-47
2021/10/13 04:13:51;;;;;;;1.20;0.70;;;;;;;;;;7393045;19;20015;-59
2021/10/13 04:16:18;;;;;;;1.30;0.98;;;;;;;;;;7393705;19;20077;-50
2021/10/13 04:18:46;;;;;;;1.58;0.82;;;;;;;;;;7393337;19;20368;-57
2021/10/13 04:21:13;;;;;;;0.93;0.80;;;;;;;;;;7391133;19;20474;-55
2021/10/13 04:23:40;;;;;;;1.00;0.80;;;;;;;;;;7393421;19;20018;-60
2021/10/13 04:26:08;;;;;;;1.25;0.70;;;;;;;;;;7392791;19;20032;-55
2021/10/13 04:28:35;;;;;;;1.58;1.00;;;;;;;;;;7395083;19;20513;-59
2021/10/13 04:31:02;;;;;;;2.67;1.20;;;;;;;;;;7392843;19;20029;-57
2021/10/13 04:33:30;;;;;;;2.85;1.70;;;;;;;;;;7391837;19;20019;-61
2021/10/13 04:35:57;;;;;;;53.03;20.33;;;;;;;;;;7392991;19;20018;-59
2021/10/13 04:38:25;;;;;;;29.75;11.95;;;;;;;;;;7392589;19;20054;-58
2021/10/13 04:40:53;;;;;;;13.35;4.28;;;;;;;;;;7390916;19;20013;-60
2021/10/13 04:43:20;;;;;;;5.63;2.97;;;;;;;;;;7391112;19;20010;-56
2021/10/13 04:45:47;;;;;;;2.97;1.35;;;;;;;;;;7392215;19;20006;-61
2021/10/13 04:48:15;;;;;;;2.00;1.08;;;;;;;;;;7392415;19;20020;-56
2021/10/13 04:50:43;;;;;;;2.38;0.75;;;;;;;;;;7392231;19;20025;-57
2021/10/13 04:53:10;;;;;;;4.43;1.90;;;;;;;;;;7392423;19;20023;-54
2021/10/13 04:55:37;;;;;;;7.07;3.72;;;;;;;;;;7391947;19;20086;-61
2021/10/13 04:58:05;;;;;;;9.77;6.38;;;;;;;;;;7392232;19;20034;-56
2021/10/13 05:00:32;;;;;;;15.32;9.80;;;;;;;;;;7390974;19;20029;-59
2021/10/13 05:03:00;;;;;;;15.63;9.23;;;;;;;;;;7391865;19;20478;-57
2021/10/13 05:05:27;;;;;;;7.35;5.22;;;;;;;;;;7390992;19;20015;-61
2021/10/13 05:07:55;;;;;;;11.35;6.85;;;;;;;;;;7391432;19;20498;-60
2021/10/13 05:10:22;;;;;;;7.40;4.93;;;;;;;;;;7391293;19;20014;-61
2021/10/13 05:12:52;;;;;;;14.75;5.65;;;;;;;;;;7391958;19;20021;-60
2021/10/13 05:15:20;;;;;;;4.45;2.70;;;;;;;;;;7392023;19;20014;-58
2021/10/13 05:17:48;;;;;;;2.42;1.58;;;;;;;;;;7391931;19;20011;-60
2021/10/13 05:20:15;;;;;;;2.75;1.10;;;;;;;;;;7390744;19;20015;-61
2021/10/13 05:22:42;;;;;;;1.67;0.88;;;;;;;;;;7390646;19;20082;-51
2021/10/13 05:25:10;;;;;;;5.68;1.08;;;;;;;;;;7390954;19;20568;-60
2021/10/13 05:27:38;;;;;;;6.65;2.05;;;;;;;;;;7392007;19;20016;-53
2021/10/13 05:30:06;;;;;;;7.88;1.38;;;;;;;;;;7392100;19;20021;-54
2021/10/13 05:32:34;;;;;;;10.07;1.00;;;;;;;;;;7390572;19;20478;-61
2021/10/13 05:35:02;;;;;;;3.10;1.42;;;;;;;;;;7390699;19;20010;-59
2021/10/13 05:37:29;;;;;;;146.55;53.60;;;;;;;;;;7390708;19;20010;-62
2021/10/13 05:39:57;;;;;;;9.52;5.28;;;;;;;;;;7388631;19;20018;-55
2021/10/13 05:42:24;;;;;;;8.40;4.60;;;;;;;;;;7390752;19;20373;-53
2021/10/13 05:44:52;;;;;;;13.73;3.10;;;;;;;;;;7390610;19;20023;-52
2021/10/13 05:47:19;;;;;;;16.02;2.72;;;;;;;;;;7385890;19;20032;-48
2021/10/13 05:49:47;;;;;;;24.00;2.78;;;;;;;;;;7389770;19;20007;-52
2021/10/13 05:52:15;;;;;;;30.58;3.20;;;;;;;;;;7388458;19;20478;-55
2021/10/13 05:54:42;;;;;;;2.72;1.58;;;;;;;;;;7390505;19;20007;-52
2021/10/13 05:57:10;;;;;;;23.50;2.95;;;;;;;;;;7388240;19;20021;-53
2021/10/13 05:59:39;;;;;;;23.17;2.45;;;;;;;;;;7390333;19;20035;-48
2021/10/13 06:02:06;;;;;;;41.83;2.65;;;;;;;;;;7389919;19;20017;-60
2021/10/13 06:04:34;;;;;;;41.50;3.20;;;;;;;;;;7389909;19;20017;-56
2021/10/13 06:07:02;;;;;;;12.43;3.47;;;;;;;;;;7389665;19;20348;-53
2021/10/13 06:09:29;;;;;;;24.15;2.78;;;;;;;;;;7390118;19;20034;-54
2021/10/13 06:11:56;;;;;;;27.27;2.05;;;;;;;;;;7389988;19;20011;-52
2021/10/13 06:14:24;;;;;;;12.43;1.67;;;;;;;;;;7389777;19;20018;-53
2021/10/13 06:16:51;;;;;;;46.70;3.70;;;;;;;;;;7389405;19;20010;-59
2021/10/13 06:19:19;;;;;;;23.98;2.10;;;;;;;;;;7396165;19;20525;-57
2021/10/13 06:21:46;;;;;;;8.10;1.27;;;;;;;;;;7394724;19;20010;-56
2021/10/13 06:24:14;;;;;;;19.88;2.22;;;;;;;;;;7397269;19;20020;-53
2021/10/13 06:26:41;;;;;;;12.57;1.33;;;;;;;;;;7395433;19;20528;-59
2021/10/13 06:29:09;;;;;;;3.90;1.00;;;;;;;;;;7401264;19;20015;-49
2021/10/13 06:31:37;;;;;;;54.28;2.58;;;;;;;;;;7397183;19;20021;-59
2021/10/13 06:34:04;;;;;;;28.40;1.90;;;;;;;;;;7393837;19;20071;-52
2021/10/13 06:36:32;;;;;;;34.05;2.25;;;;;;;;;;7397097;19;20015;-50
2021/10/13 06:38:59;;;;;;;39.67;3.05;;;;;;;;;;7396634;19;20032;-61
2021/10/13 06:41:28;;;;;;;16.30;1.13;;;;;;;;;;7395850;19;20398;-59
2021/10/13 06:43:56;;;;;;;15.05;1.17;;;;;;;;;;7397222;19;20037;-60
2021/10/13 06:46:23;;;;;;;34.33;2.28;;;;;;;;;;7396187;19;20014;-49
2021/10/13 06:48:51;;;;;;;31.35;1.80;;;;;;;;;;7396276;19;20489;-60
2021/10/13 06:51:18;;;;;;;21.60;1.35;;;;;;;;;;7396717;19;20021;-50
2021/10/13 06:53:47;;;;;;;31.08;1.42;;;;;;;;;;7397057;19;20018;-55
2021/10/13 06:56:14;;;;;;;44.38;2.40;;;;;;;;;;7395816;19;20364;-59
2021/10/13 06:58:42;;;;;;;26.75;1.30;;;;;;;;;;7395753;19;20006;-54
2021/10/13 07:01:09;;;;;;;17.60;1.63;;;;;;;;;;7394343;19;20010;-60
2021/10/13 07:03:37;;;;;;;62.47;2.72;;;;;;;;;;7395984;19;20010;-52
2021/10/13 07:06:04;;;;;;;9.82;0.95;;;;;;;;;;7395481;19;20010;-60
2021/10/13 07:08:32;;;;;;;16.00;1.20;;;;;;;;;;7395415;19;20015;-57
2021/10/13 07:11:00;;;;;;;1.42;0.73;;;;;;;;;;7394957;19;20011;-60
2021/10/13 07:13:28;;;;;;;4.07;0.85;;;;;;;;;;7395236;19;20033;-61
2021/10/13 07:15:55;;;;;;;16.90;1.10;;;;;;;;;;7395592;19;20019;-54
2021/10/13 07:18:23;;;;;;;18.80;1.42;;;;;;;;;;7394902;19;20010;-53
2021/10/13 07:20:51;;;;;;;21.85;1.38;;;;;;;;;;7394331;19;20015;-57
2021/10/13 07:23:19;;;;;;;22.17;1.75;;;;;;;;;;7395186;19;20018;-51
2021/10/13 07:25:46;;;;;;;32.33;1.98;;;;;;;;;;7395152;19;20037;-53
2021/10/13 07:28:14;;;;;;;19.42;1.25;;;;;;;;;;7396739;19;20029;-60
2021/10/13 07:30:42;;;;;;;22.35;1.73;;;;;;;;;;7394855;19;20015;-53
2021/10/13 07:33:10;;;;;;;29.27;1.73;;;;;;;;;;7394408;19;20028;-60
2021/10/13 07:35:38;;;;;;;45.75;2.00;;;;;;;;;;7394716;19;20489;-58
2021/10/13 07:38:05;;;;;;;35.83;1.90;;;;;;;;;;7394426;19;20014;-59
2021/10/13 07:40:33;;;;;;;26.80;1.50;;;;;;;;;;7393465;19;20108;-58
2021/10/13 07:43:01;;;;;;;6.80;0.90;;;;;;;;;;7394327;19;20023;-54
2021/10/13 07:45:28;;;;;;;20.60;1.75;;;;;;;;;;7394233;19;20361;-60
2021/10/13 07:47:56;;;;;;;15.60;1.38;;;;;;;;;;7394374;19;20015;-55
2021/10/13 07:50:25;;;;;;;17.75;1.73;;;;;;;;;;7394075;19;20074;-56
2021/10/13 07:52:53;;;;;;;7.55;1.17;;;;;;;;;;7394086;19;20022;-60
2021/10/13 07:55:20;;;;;;;2.78;1.20;;;;;;;;;;7394575;19;20014;-51
2021/10/13 07:57:48;;;;;;;3.78;1.35;;;;;;;;;;7394562;19;20014;-54
2021/10/13 08:00:20;;;;;;;5.75;1.67;;;;;;;;;;7393564;19;20010;-61
2021/10/13 08:02:48;;;;;;;7.72;1.33;;;;;;;;;;7393995;19;20021;-56
2021/10/13 08:05:16;;;;;;;2.10;1.23;;;;;;;;;;7393531;19;20010;-61
2021/10/13 08:07:45;;;;;;;7.10;1.50;;;;;;;;;;7394144;19;20007;-53
2021/10/13 08:10:13;;;;;;;8.93;1.58;;;;;;;;;;7393805;19;20077;-55
2021/10/13 08:12:41;;;;;;;3.22;1.08;;;;;;;;;;7393716;19;20037;-61
2021/10/13 08:15:10;;;;;;;1.92;1.25;;;;;;;;;;7393317;19;20032;-58
2021/10/13 08:17:37;;;;;;;1.67;1.10;;;;;;;;;;7393367;19;20094;-57
2021/10/13 08:20:07;;;;;;;1.17;0.80;;;;;;;;;;7393518;19;20028;-58
2021/10/13 08:22:35;;;;;;;1.80;0.77;;;;;;;;;;7393130;19;20481;-54
2021/10/13 08:25:05;;;;;;;0.75;0.60;;;;;;;;;;7393635;19;20052;-48
2021/10/13 08:27:34;;;;;;;1.25;0.63;;;;;;;;;;7394461;19;20024;-49
2021/10/13 08:30:02;;;;;;;0.50;0.50;;;;;;;;;;7392767;19;20029;-57
2021/10/13 08:32:29;;;;;;;0.93;0.50;;;;;;;;;;7392399;19;20015;-54
2021/10/13 08:34:57;;;;;;;0.73;0.60;;;;;;;;;;7393051;19;20018;-54
2021/10/13 08:37:24;;;;;;;0.52;0.50;;;;;;;;;;7392833;19;20011;-58
2021/10/13 08:39:52;;;;;;;0.90;0.57;;;;;;;;;;7392021;19;20007;-54
2021/10/13 08:42:23;;;;;;;0.32;0.32;;;;;;;;;;7390142;19;20006;-57
2021/10/13 08:44:54;;;;;;;2.22;0.60;;;;;;;;;;7392444;19;20011;-60
2021/10/13 08:47:22;;;;;;;0.40;0.35;;;;;;;;;;7392747;19;20014;-60
2021/10/13 08:49:51;;;;;;;0.43;0.40;;;;;;;;;;7392679;19;20007;-60
2021/10/13 08:52:19;;;;;;;1.52;0.40;;;;;;;;;;7392531;19;20493;-59
2021/10/13 08:54:46;;;;;;;0.93;0.60;;;;;;;;;;7392663;19;20078;-58
2021/10/13 08:57:19;;;;;;;0.70;0.60;;;;;;;;;;7391884;19;20014;-61
2021/10/13 08:59:49;;;;;;;0.73;0.50;;;;;;;;;;7392472;19;20484;-61
2021/10/13 09:02:17;;;;;;;0.50;0.50;;;;;;;;;;7390688;19;20011;-60
2021/10/13 09:05:22;;;;;;;4.45;1.70;;;;;;;;;;7392383;19;20036;-61
2021/10/13 09:07:53;;;;;;;1.00;0.47;;;;;;;;;;7391138;19;20036;-62
2021/10/13 09:10:35;;;;;;;1.00;0.50;;;;;;;;;;7391929;19;20023;-58
2021/10/13 09:13:13;;;;;;;0.77;0.50;;;;;;;;;;7391442;19;20011;-56
2021/10/13 09:15:47;;;;;;;0.98;0.50;;;;;;;;;;7391517;19;20479;-60
2021/10/13 09:18:14;;;;;;;0.50;0.40;;;;;;;;;;7391233;19;20006;-61
2021/10/13 09:20:42;;;;;;;0.63;0.52;;;;;;;;;;7390842;19;20486;-61
2021/10/13 09:23:19;;;;;;;0.70;0.70;;;;;;;;;;7391316;19;20011;-61
2021/10/13 09:26:10;;;;;;;0.75;0.63;;;;;;;;;;7391720;19;20017;-61
2021/10/13 09:28:41;;;;;;;0.52;0.40;;;;;;;;;;7394767;19;20482;-61
2021/10/13 09:31:11;;;;;;;1.02;0.52;;;;;;;;;;7391703;19;20017;-61
2021/10/13 09:33:52;;;;;;;1.65;0.60;;;;;;;;;;7390374;19;20040;-61
2021/10/13 09:36:19;;;;;;;0.55;0.40;;;;;;;;;;7391082;19;20078;-59
2021/10/13 09:38:47;;;;;;;0.93;0.47;;;;;;;;;;7390983;19;20017;-62
2021/10/13 09:41:14;;;;;;;1.00;0.50;;;;;;;;;;7389743;19;20014;-58
2021/10/13 09:43:43;;;;;;;0.50;0.40;;;;;;;;;;7391186;19;20036;-62
2021/10/13 09:46:16;;;;;;;0.80;0.40;;;;;;;;;;7389386;19;20070;-62
2021/10/13 09:48:58;;;;;;;0.77;0.50;;;;;;;;;;7390679;19;20019;-60
2021/10/13 09:51:26;;;;;;;1.15;0.50;;;;;;;;;;7390775;19;20010;-62
2021/10/13 09:53:56;;;;;;;0.60;0.43;;;;;;;;;;7398308;19;20014;-59
2021/10/13 09:56:31;;;;;;;0.40;0.40;;;;;;;;;;7398204;19;20019;-61
2021/10/13 09:59:09;;;;;;;0.30;0.30;;;;;;;;;;7396812;19;20081;-58
2021/10/13 10:01:37;;;;;;;1.17;0.50;;;;;;;;;;7394832;19;20041;-60
2021/10/13 10:04:09;;;;;;;0.85;0.40;;;;;;;;;;7397372;19;20011;-61
2021/10/13 10:06:37;;;;;;;0.55;0.40;;;;;;;;;;7397383;19;20035;-61
2021/10/13 10:09:05;;;;;;;0.52;0.38;;;;;;;;;;7397755;19;20343;-61
2021/10/13 10:11:39;;;;;;;2.67;0.40;;;;;;;;;;7395983;19;20006;-61
2021/10/13 10:14:42;;;;;;;0.90;0.40;;;;;;;;;;7397911;19;20022;-55
2021/10/13 10:17:09;;;;;;;0.30;0.30;;;;;;;;;;7395373;19;20499;-62
2021/10/13 10:19:40;;;;;;;0.47;0.40;;;;;;;;;;7397616;19;20127;-61
2021/10/13 10:22:21;;;;;;;2.10;0.40;;;;;;;;;;7395399;19;20026;-60
2021/10/13 10:24:54;;;;;;;0.88;0.60;;;;;;;;;;7397400;19;20010;-56
2021/10/13 10:27:27;;;;;;;0.30;0.30;;;;;;;;;;7398221;19;20037;-60
2021/10/13 10:30:13;;;;;;;0.20;0.20;;;;;;;;;;7397445;19;20006;-59
2021/10/13 10:32:44;;;;;;;0.30;0.30;;;;;;;;;;7396717;19;20023;-60
2021/10/13 10:35:16;;;;;;;0.30;0.30;;;;;;;;;;7396265;19;20019;-59
2021/10/13 10:37:50;;;;;;;1.00;0.45;;;;;;;;;;7396888;19;20489;-61
2021/10/13 10:40:32;;;;;;;1.67;0.43;;;;;;;;;;7396716;19;20033;-61
2021/10/13 10:43:18;;;;;;;0.80;0.50;;;;;;;;;;7398334;19;20017;-57
2021/10/13 10:45:54;;;;;;;0.50;0.40;;;;;;;;;;7398225;19;20709;-57
2021/10/13 10:48:23;;;;;;;0.65;0.40;;;;;;;;;;7396618;19;20485;-60
2021/10/13 10:50:53;;;;;;;0.57;0.40;;;;;;;;;;7396675;19;20048;-56
2021/10/13 10:53:36;;;;;;;0.43;0.38;;;;;;;;;;7396526;19;20033;-57
2021/10/13 10:56:23;;;;;;;0.28;0.28;;;;;;;;;;7395872;19;20493;-57
2021/10/13 10:59:11;;;;;;;0.30;0.30;;;;;;;;;;7395955;19;20481;-62
2021/10/13 11:02:00;;;;;;;0.55;0.40;;;;;;;;;;7395451;19;20021;-62
2021/10/13 11:04:28;;;;;;;0.88;0.40;;;;;;;;;;7394054;19;20006;-61
2021/10/13 11:06:56;;;;;;;0.82;0.40;;;;;;;;;;7395852;19;20006;-62
2021/10/13 11:09:25;;;;;;;0.88;0.45;;;;;;;;;;7396295;19;20018;-62
2021/10/13 11:11:52;;;;;;;0.90;0.60;;;;;;;;;;7395565;19;20023;-61
2021/10/13 11:14:23;;;;;;;1.70;0.88;;;;;;;;;;7395672;19;20108;-60
2021/10/13 11:16:59;;;;;;;0.75;0.40;;;;;;;;;;7394937;19;20420;-59
2021/10/13 11:19:28;;;;;;;0.88;0.50;;;;;;;;;;7394108;19;20484;-62
2021/10/13 11:22:05;;;;;;;0.50;0.38;;;;;;;;;;7394471;19;20031;-56
2021/10/13 11:24:36;;;;;;;1.80;0.40;;;;;;;;;;7395320;19;20011;-62
2021/10/13 11:27:03;;;;;;;0.43;0.40;;;;;;;;;;7395300;19;20006;-61
2021/10/13 11:29:34;;;;;;;0.50;0.30;;;;;;;;;;7394789;19;20011;-56
2021/10/13 11:32:08;;;;;;;0.40;0.30;;;;;;;;;;7394501;19;20496;-59
2021/10/13 11:34:37;;;;;;;1.27;0.60;;;;;;;;;;7392780;19;20015;-56
2021/10/13 11:37:05;;;;;;;0.75;0.40;;;;;;;;;;7394559;19;20014;-59
2021/10/13 11:39:35;;;;;;;0.40;0.40;;;;;;;;;;7394879;19;20040;-53
2021/10/13 11:42:03;;;;;;;0.65;0.45;;;;;;;;;;7394655;19;20482;-61
2021/10/13 11:44:31;;;;;;;1.33;0.50;;;;;;;;;;7394290;19;20029;-61
2021/10/13 11:47:07;;;;;;;0.90;0.47;;;;;;;;;;7394397;19;20014;-59
2021/10/13 11:49:52;;;;;;;1.92;0.52;;;;;;;;;;7394302;19;20041;-61
2021/10/13 11:52:20;;;;;;;0.47;0.38;;;;;;;;;;7394089;19;20014;-61
2021/10/13 11:54:57;;;;;;;1.15;0.60;;;;;;;;;;7394444;19;20027;-58
2021/10/13 11:57:25;;;;;;;1.80;1.23;;;;;;;;;;7394521;19;20494;-62
2021/10/13 12:00:30;;;;;;;1.48;0.52;;;;;;;;;;7393909;19;20017;-61
2021/10/13 12:03:09;;;;;;;1.52;0.60;;;;;;;;;;7388032;19;20011;-58
2021/10/13 12:05:38;;;;;;;1.27;0.88;;;;;;;;;;7392410;19;20733;-62
2021/10/13 12:08:12;;;;;;;0.70;0.50;;;;;;;;;;7392137;19;20011;-61
2021/10/13 12:10:47;;;;;;;82.65;31.90;;;;;;;;;;7393420;19;20078;-59
2021/10/13 12:13:28;;;;;;;41.10;17.48;;;;;;;;;;7393290;19;20010;-60
2021/10/13 12:16:24;;;;;;;3.00;1.45;;;;;;;;;;7391203;19;20043;-55
2021/10/13 12:18:52;;;;;;;0.98;0.50;;;;;;;;;;7393636;19;20011;-59
2021/10/13 12:21:24;;;;;;;3.20;0.63;;;;;;;;;;7392891;19;20010;-60
2021/10/13 12:23:55;;;;;;;1.55;0.65;;;;;;;;;;7393064;19;20017;-55
2021/10/13 12:26:28;;;;;;;0.52;0.30;;;;;;;;;;7395637;19;20010;-56
2021/10/13 12:29:07;;;;;;;0.68;0.43;;;;;;;;;;7397229;19;20032;-59
2021/10/13 12:31:35;;;;;;;0.60;0.40;;;;;;;;;;7392804;19;20093;-59
2021/10/13 12:34:06;;;;;;;0.85;0.40;;;;;;;;;;7391524;19;20024;-59
2021/10/13 12:36:37;;;;;;;0.45;0.40;;;;;;;;;;7393426;19;20017;-60
2021/10/13 12:39:09;;;;;;;0.60;0.38;;;;;;;;;;7393292;19;20014;-55
2021/10/13 12:41:40;;;;;;;0.52;0.40;;;;;;;;;;7392016;19;20006;-59
2021/10/13 12:44:28;;;;;;;1.05;0.50;;;;;;;;;;7392447;19;20481;-59
2021/10/13 12:46:58;;;;;;;0.80;0.40;;;;;;;;;;7393076;19;20010;-60
2021/10/13 12:49:34;;;;;;;0.68;0.40;;;;;;;;;;7392172;19;20015;-60
2021/10/13 12:52:13;;;;;;;260.60;101.20;;;;;;;;;;7392741;19;20011;-60
2021/10/13 12:54:43;;;;;;;19.25;6.97;;;;;;;;;;7392298;19;20029;-61
2021/10/13 12:57:19;;;;;;;3.60;1.40;;;;;;;;;;7392190;19;20007;-59
2021/10/13 12:59:49;;;;;;;1.15;0.60;;;;;;;;;;7392235;19;20028;-58
2021/10/13 13:02:17;;;;;;;0.60;0.50;;;;;;;;;;7391208;19;20037;-58
2021/10/13 13:04:45;;;;;;;1.20;0.50;;;;;;;;;;7391869;19;20087;-60
2021/10/13 13:07:14;;;;;;;0.70;0.57;;;;;;;;;;7389910;19;20018;-60
2021/10/13 13:09:43;;;;;;;0.85;0.40;;;;;;;;;;7391497;19;20014;-60
2021/10/13 13:12:10;;;;;;;0.47;0.43;;;;;;;;;;7391922;19;20034;-58
2021/10/13 13:14:38;;;;;;;1.08;0.52;;;;;;;;;;7391323;19;20605;-59
2021/10/13 13:17:07;;;;;;;0.30;0.30;;;;;;;;;;7391541;19;20027;-59
2021/10/13 13:19:36;;;;;;;0.30;0.30;;;;;;;;;;7391684;19;20085;-61
2021/10/13 13:22:06;;;;;;;1.17;0.50;;;;;;;;;;7389104;19;20039;-60
2021/10/13 13:24:33;;;;;;;0.80;0.30;;;;;;;;;;7390256;19;20090;-58
2021/10/13 13:27:01;;;;;;;0.65;0.50;;;;;;;;;;7390092;19;20024;-62
2021/10/13 13:29:30;;;;;;;165.40;68.85;;;;;;;;;;7391045;19;20010;-62
2021/10/13 13:31:58;;;;;;;30.65;14.45;;;;;;;;;;7390897;19;20017;-61
2021/10/13 13:34:34;;;;;;;3.60;1.45;;;;;;;;;;7389112;19;20015;-62
2021/10/13 13:37:02;;;;;;;1.90;0.90;;;;;;;;;;7390889;19;20500;-61
2021/10/13 13:39:30;;;;;;;1.08;0.65;;;;;;;;;;7391038;19;20070;-61
2021/10/13 13:41:57;;;;;;;0.50;0.30;;;;;;;;;;7390505;19;20505;-61
2021/10/13 13:44:25;;;;;;;1.67;0.60;;;;;;;;;;7390880;19;20029;-62
2021/10/13 13:46:52;;;;;;;0.57;0.45;;;;;;;;;;7390548;19;20015;-61
2021/10/13 13:49:19;;;;;;;0.98;0.60;;;;;;;;;;7390728;19;20025;-60
2021/10/13 13:51:47;;;;;;;1.00;0.68;;;;;;;;;;7390111;19;20027;-61
2021/10/13 13:54:15;;;;;;;1.90;0.70;;;;;;;;;;7391018;19;20011;-62
2021/10/13 13:56:43;;;;;;;1.25;0.80;;;;;;;;;;7390908;19;20034;-59
2021/10/13 13:59:10;;;;;;;1.10;0.70;;;;;;;;;;7390528;19;20015;-60
2021/10/13 14:01:37;;;;;;;1.20;0.80;;;;;;;;;;7389888;19;20010;-62
2021/10/13 14:04:05;;;;;;;1.40;0.80;;;;;;;;;;7390734;19;20029;-68
2021/10/13 14:06:33;;;;;;;2.72;1.40;;;;;;;;;;7389591;19;20011;-61
2021/10/13 14:09:00;;;;;;;1.40;0.98;;;;;;;;;;7390175;19;20078;-61
2021/10/13 14:11:28;;;;;;;1.90;0.90;;;;;;;;;;7390451;19;20489;-61
2021/10/13 14:13:55;;;;;;;0.75;0.60;;;;;;;;;;7390578;19;20015;-61
2021/10/13 14:16:23;;;;;;;0.80;0.60;;;;;;;;;;7389567;19;20014;-60
2021/10/13 14:18:50;;;;;;;0.73;0.60;;;;;;;;;;7389478;19;20010;-64
2021/10/13 14:21:18;;;;;;;0.90;0.80;;;;;;;;;;7388609;19;20014;-61
2021/10/13 14:23:46;;;;;;;1.00;0.80;;;;;;;;;;7388009;19;20029;-60
2021/10/13 14:26:13;;;;;;;0.93;0.70;;;;;;;;;;7389587;19;20037;-60
2021/10/13 14:28:41;;;;;;;3.10;0.80;;;;;;;;;;7392605;19;20098;-64
2021/10/13 14:31:09;;;;;;;31.55;12.45;;;;;;;;;;7389456;19;20054;-61
2021/10/13 14:33:45;;;;;;;4.07;2.13;;;;;;;;;;7388062;19;20021;-60
2021/10/13 14:36:13;;;;;;;1.73;1.05;;;;;;;;;;7389115;19;20502;-60
2021/10/13 14:38:40;;;;;;;1.20;0.80;;;;;;;;;;7390651;19;20019;-61
2021/10/13 14:41:08;;;;;;;1.00;0.70;;;;;;;;;;7397182;19;20058;-60
2021/10/13 14:43:37;;;;;;;0.88;0.60;;;;;;;;;;7394329;19;20037;-62
2021/10/13 14:46:04;;;;;;;3.05;1.10;;;;;;;;;;7396465;19;20115;-60
2021/10/13 14:48:31;;;;;;;0.73;0.60;;;;;;;;;;7396141;19;20014;-62
2021/10/13 14:51:00;;;;;;;0.90;0.68;;;;;;;;;;7396634;19;20487;-61
2021/10/13 14:53:29;;;;;;;1.75;0.98;;;;;;;;;;7396393;19;20015;-60
2021/10/13 14:55:56;;;;;;;1.38;0.80;;;;;;;;;;7396171;19;20014;-61
2021/10/13 14:58:24;;;;;;;1.70;0.80;;;;;;;;;;7395986;19;20014;-61
2021/10/13 15:00:51;;;;;;;1.88;0.90;;;;;;;;;;7396316;19;20044;-60